sensor_id;sensor_type;location;lat;lon;timestamp;temperature;humidity
82506;SHT30;72144;51.444;10.560;2024-03-02T00:00:07;8.23;77.42
82506;SHT30;72144;51.444;10.560;2024-03-02T00:02:41;8.20;77.39
82506;SHT30;72144;51.444;10.560;2024-03-02T00:05:07;8.19;77.50
82506;SHT30;72144;51.444;10.560;2024-03-02T00:07:33;8.20;77.55
82506;SHT30;72144;51.444;10.560;2024-03-02T00:09:59;8.17;77.51
82506;SHT30;72144;51.444;10.560;2024-03-02T00:12:25;8.16;77.50
82506;SHT30;72144;51.444;10.560;2024-03-02T00:14:51;8.13;77.50
82506;SHT30;72144;51.444;10.560;2024-03-02T00:17:24;8.14;77.56
82506;SHT30;72144;51.444;10.560;2024-03-02T00:19:51;8.12;77.51
82506;SHT30;72144;51.444;10.560;2024-03-02T00:22:16;8.12;77.53
82506;SHT30;72144;51.444;10.560;2024-03-02T00:24:42;8.13;77.60
82506;SHT30;72144;51.444;10.560;2024-03-02T00:27:08;8.09;77.58
82506;SHT30;72144;51.444;10.560;2024-03-02T00:29:36;8.07;77.57
82506;SHT30;72144;51.444;10.560;2024-03-02T00:32:02;8.06;77.56
82506;SHT30;72144;51.444;10.560;2024-03-02T00:34:27;8.07;77.52
82506;SHT30;72144;51.444;10.560;2024-03-02T00:36:57;8.03;77.48
82506;SHT30;72144;51.444;10.560;2024-03-02T00:39:25;8.02;77.51
82506;SHT30;72144;51.444;10.560;2024-03-02T00:41:50;8.02;77.51
82506;SHT30;72144;51.444;10.560;2024-03-02T00:44:16;8.00;77.47
82506;SHT30;72144;51.444;10.560;2024-03-02T00:46:44;7.99;77.44
82506;SHT30;72144;51.444;10.560;2024-03-02T00:51:48;7.95;77.47
82506;SHT30;72144;51.444;10.560;2024-03-02T00:54:14;7.93;77.51
82506;SHT30;72144;51.444;10.560;2024-03-02T00:56:41;7.92;77.49
82506;SHT30;72144;51.444;10.560;2024-03-02T00:59:07;7.92;77.48
82506;SHT30;72144;51.444;10.560;2024-03-02T01:01:33;7.90;77.43
82506;SHT30;72144;51.444;10.560;2024-03-02T01:03:59;7.86;77.41
82506;SHT30;72144;51.444;10.560;2024-03-02T01:06:24;7.86;77.45
82506;SHT30;72144;51.444;10.560;2024-03-02T01:08:50;7.86;77.50
82506;SHT30;72144;51.444;10.560;2024-03-02T01:11:17;7.83;77.51
82506;SHT30;72144;51.444;10.560;2024-03-02T01:13:43;7.79;77.54
82506;SHT30;72144;51.444;10.560;2024-03-02T01:16:08;7.81;77.53
82506;SHT30;72144;51.444;10.560;2024-03-02T01:18:34;7.81;77.57
82506;SHT30;72144;51.444;10.560;2024-03-02T01:20:59;7.76;77.55
82506;SHT30;72144;51.444;10.560;2024-03-02T01:23:25;7.78;77.58
82506;SHT30;72144;51.444;10.560;2024-03-02T01:25:51;7.75;77.56
82506;SHT30;72144;51.444;10.560;2024-03-02T01:28:17;7.72;77.56
82506;SHT30;72144;51.444;10.560;2024-03-02T01:30:43;7.74;77.60
82506;SHT30;72144;51.444;10.560;2024-03-02T01:33:08;7.69;77.62
82506;SHT30;72144;51.444;10.560;2024-03-02T01:35:34;7.68;77.65
82506;SHT30;72144;51.444;10.560;2024-03-02T01:38:03;7.68;77.66
82506;SHT30;72144;51.444;10.560;2024-03-02T01:40:28;7.64;77.77
82506;SHT30;72144;51.444;10.560;2024-03-02T01:42:54;7.64;77.79
82506;SHT30;72144;51.444;10.560;2024-03-02T01:45:21;7.62;77.74
82506;SHT30;72144;51.444;10.560;2024-03-02T01:47:47;7.64;77.71
82506;SHT30;72144;51.444;10.560;2024-03-02T01:50:12;7.62;77.79
82506;SHT30;72144;51.444;10.560;2024-03-02T01:52:38;7.61;77.81
82506;SHT30;72144;51.444;10.560;2024-03-02T01:55:04;7.58;77.81
82506;SHT30;72144;51.444;10.560;2024-03-02T01:57:30;7.62;77.82
82506;SHT30;72144;51.444;10.560;2024-03-02T01:59:56;7.57;77.77
82506;SHT30;72144;51.444;10.560;2024-03-02T02:02:21;7.55;77.82
82506;SHT30;72144;51.444;10.560;2024-03-02T02:04:47;7.55;77.88
82506;SHT30;72144;51.444;10.560;2024-03-02T02:07:13;7.57;77.87
82506;SHT30;72144;51.444;10.560;2024-03-02T02:09:42;7.54;77.84
82506;SHT30;72144;51.444;10.560;2024-03-02T02:12:09;7.54;77.86
82506;SHT30;72144;51.444;10.560;2024-03-02T02:14:34;7.55;77.84
82506;SHT30;72144;51.444;10.560;2024-03-02T02:17:00;7.52;77.83
82506;SHT30;72144;51.444;10.560;2024-03-02T02:19:25;7.51;77.91
82506;SHT30;72144;51.444;10.560;2024-03-02T02:21:51;7.50;77.88
82506;SHT30;72144;51.444;10.560;2024-03-02T02:24:16;7.48;77.92
82506;SHT30;72144;51.444;10.560;2024-03-02T02:26:41;7.48;77.90
82506;SHT30;72144;51.444;10.560;2024-03-02T02:29:07;7.51;77.97
82506;SHT30;72144;51.444;10.560;2024-03-02T02:31:42;7.51;77.97
82506;SHT30;72144;51.444;10.560;2024-03-02T02:34:07;7.50;77.99
82506;SHT30;72144;51.444;10.560;2024-03-02T02:36:37;7.47;77.95
82506;SHT30;72144;51.444;10.560;2024-03-02T02:39:04;7.48;77.95
82506;SHT30;72144;51.444;10.560;2024-03-02T02:41:32;7.44;77.92
82506;SHT30;72144;51.444;10.560;2024-03-02T02:43:57;7.46;77.85
82506;SHT30;72144;51.444;10.560;2024-03-02T02:46:22;7.44;77.92
82506;SHT30;72144;51.444;10.560;2024-03-02T02:48:48;7.44;77.92
82506;SHT30;72144;51.444;10.560;2024-03-02T02:51:13;7.41;77.96
82506;SHT30;72144;51.444;10.560;2024-03-02T02:53:38;7.43;78.05
82506;SHT30;72144;51.444;10.560;2024-03-02T02:56:07;7.41;78.00
82506;SHT30;72144;51.444;10.560;2024-03-02T02:58:32;7.40;77.98
82506;SHT30;72144;51.444;10.560;2024-03-02T03:00:58;7.41;78.01
82506;SHT30;72144;51.444;10.560;2024-03-02T03:03:23;7.37;78.05
82506;SHT30;72144;51.444;10.560;2024-03-02T03:05:49;7.37;78.10
82506;SHT30;72144;51.444;10.560;2024-03-02T03:08:14;7.37;78.07
82506;SHT30;72144;51.444;10.560;2024-03-02T03:10:41;7.33;78.08
82506;SHT30;72144;51.444;10.560;2024-03-02T03:13:07;7.35;78.08
82506;SHT30;72144;51.444;10.560;2024-03-02T03:15:34;7.34;78.16
82506;SHT30;72144;51.444;10.560;2024-03-02T03:18:01;7.33;78.16
82506;SHT30;72144;51.444;10.560;2024-03-02T03:20:29;7.33;78.21
82506;SHT30;72144;51.444;10.560;2024-03-02T03:22:54;7.28;78.23
82506;SHT30;72144;51.444;10.560;2024-03-02T03:25:19;7.28;78.25
82506;SHT30;72144;51.444;10.560;2024-03-02T03:27:45;7.28;78.25
82506;SHT30;72144;51.444;10.560;2024-03-02T03:30:11;7.28;78.24
82506;SHT30;72144;51.444;10.560;2024-03-02T03:32:37;7.27;78.28
82506;SHT30;72144;51.444;10.560;2024-03-02T03:35:03;7.23;78.30
82506;SHT30;72144;51.444;10.560;2024-03-02T03:37:29;7.24;78.34
82506;SHT30;72144;51.444;10.560;2024-03-02T03:40:01;7.23;78.29
82506;SHT30;72144;51.444;10.560;2024-03-02T03:42:27;7.24;78.29
82506;SHT30;72144;51.444;10.560;2024-03-02T03:44:52;7.23;78.30
82506;SHT30;72144;51.444;10.560;2024-03-02T03:47:18;7.23;78.28
82506;SHT30;72144;51.444;10.560;2024-03-02T03:49:43;7.22;78.30
82506;SHT30;72144;51.444;10.560;2024-03-02T03:52:09;7.22;78.32
82506;SHT30;72144;51.444;10.560;2024-03-02T03:54:34;7.19;78.30
82506;SHT30;72144;51.444;10.560;2024-03-02T03:57:02;7.20;78.33
82506;SHT30;72144;51.444;10.560;2024-03-02T03:59:27;7.19;78.31
82506;SHT30;72144;51.444;10.560;2024-03-02T04:01:53;7.17;78.31
82506;SHT30;72144;51.444;10.560;2024-03-02T04:04:18;7.16;78.32
82506;SHT30;72144;51.444;10.560;2024-03-02T04:06:44;7.15;78.35
82506;SHT30;72144;51.444;10.560;2024-03-02T04:09:09;7.13;78.39
82506;SHT30;72144;51.444;10.560;2024-03-02T04:11:34;7.13;78.42
82506;SHT30;72144;51.444;10.560;2024-03-02T04:14:00;7.13;78.41
82506;SHT30;72144;51.444;10.560;2024-03-02T04:16:26;7.13;78.42
82506;SHT30;72144;51.444;10.560;2024-03-02T04:18:51;7.12;78.44
82506;SHT30;72144;51.444;10.560;2024-03-02T04:21:17;7.12;78.50
82506;SHT30;72144;51.444;10.560;2024-03-02T04:23:42;7.13;78.56
82506;SHT30;72144;51.444;10.560;2024-03-02T04:26:07;7.10;78.56
82506;SHT30;72144;51.444;10.560;2024-03-02T04:28:33;7.07;78.57
82506;SHT30;72144;51.444;10.560;2024-03-02T04:30:58;7.06;78.57
82506;SHT30;72144;51.444;10.560;2024-03-02T04:33:23;7.06;78.56
82506;SHT30;72144;51.444;10.560;2024-03-02T04:35:49;7.02;78.69
82506;SHT30;72144;51.444;10.560;2024-03-02T04:38:14;7.03;78.71
82506;SHT30;72144;51.444;10.560;2024-03-02T04:40:40;7.03;78.68
82506;SHT30;72144;51.444;10.560;2024-03-02T04:43:05;7.00;78.71
82506;SHT30;72144;51.444;10.560;2024-03-02T04:45:30;7.03;78.68
82506;SHT30;72144;51.444;10.560;2024-03-02T04:47:56;7.00;78.66
82506;SHT30;72144;51.444;10.560;2024-03-02T04:50:21;6.99;78.64
82506;SHT30;72144;51.444;10.560;2024-03-02T04:52:46;7.00;78.68
82506;SHT30;72144;51.444;10.560;2024-03-02T04:55:12;6.98;78.71
82506;SHT30;72144;51.444;10.560;2024-03-02T04:57:52;6.96;78.62
82506;SHT30;72144;51.444;10.560;2024-03-02T05:00:20;6.96;78.63
82506;SHT30;72144;51.444;10.560;2024-03-02T05:02:45;6.96;78.59
82506;SHT30;72144;51.444;10.560;2024-03-02T05:05:11;6.95;78.59
82506;SHT30;72144;51.444;10.560;2024-03-02T05:07:36;6.95;78.61
82506;SHT30;72144;51.444;10.560;2024-03-02T05:10:02;6.95;78.60
82506;SHT30;72144;51.444;10.560;2024-03-02T05:12:27;6.92;78.56
82506;SHT30;72144;51.444;10.560;2024-03-02T05:15:09;6.92;78.58
82506;SHT30;72144;51.444;10.560;2024-03-02T05:17:35;6.93;78.56
82506;SHT30;72144;51.444;10.560;2024-03-02T05:20:01;6.91;78.59
82506;SHT30;72144;51.444;10.560;2024-03-02T05:22:26;6.91;78.60
82506;SHT30;72144;51.444;10.560;2024-03-02T05:24:52;6.89;78.56
82506;SHT30;72144;51.444;10.560;2024-03-02T05:27:18;6.88;78.64
82506;SHT30;72144;51.444;10.560;2024-03-02T05:29:43;6.88;78.65
82506;SHT30;72144;51.444;10.560;2024-03-02T05:32:08;6.88;78.65
82506;SHT30;72144;51.444;10.560;2024-03-02T05:34:34;6.88;78.63
82506;SHT30;72144;51.444;10.560;2024-03-02T05:37:01;6.88;78.62
82506;SHT30;72144;51.444;10.560;2024-03-02T05:39:26;6.87;78.59
82506;SHT30;72144;51.444;10.560;2024-03-02T05:41:52;6.85;78.54
82506;SHT30;72144;51.444;10.560;2024-03-02T05:44:17;6.87;78.51
82506;SHT30;72144;51.444;10.560;2024-03-02T05:46:43;6.84;78.54
82506;SHT30;72144;51.444;10.560;2024-03-02T05:49:09;6.84;78.52
82506;SHT30;72144;51.444;10.560;2024-03-02T05:51:35;6.84;78.49
82506;SHT30;72144;51.444;10.560;2024-03-02T05:54:00;6.82;78.53
82506;SHT30;72144;51.444;10.560;2024-03-02T05:56:25;6.82;78.49
82506;SHT30;72144;51.444;10.560;2024-03-02T05:58:51;6.79;78.40
82506;SHT30;72144;51.444;10.560;2024-03-02T06:01:35;6.78;78.51
82506;SHT30;72144;51.444;10.560;2024-03-02T06:04:00;6.75;78.50
82506;SHT30;72144;51.444;10.560;2024-03-02T06:06:26;6.75;78.55
82506;SHT30;72144;51.444;10.560;2024-03-02T06:08:52;6.75;78.50
82506;SHT30;72144;51.444;10.560;2024-03-02T06:11:19;6.74;78.52
82506;SHT30;72144;51.444;10.560;2024-03-02T06:13:44;6.72;78.60
82506;SHT30;72144;51.444;10.560;2024-03-02T06:16:10;6.70;78.58
82506;SHT30;72144;51.444;10.560;2024-03-02T06:18:35;6.70;78.59
82506;SHT30;72144;51.444;10.560;2024-03-02T06:21:00;6.70;78.66
82506;SHT30;72144;51.444;10.560;2024-03-02T06:23:26;6.67;78.65
82506;SHT30;72144;51.444;10.560;2024-03-02T06:25:52;6.67;78.67
82506;SHT30;72144;51.444;10.560;2024-03-02T06:28:17;6.65;78.72
82506;SHT30;72144;51.444;10.560;2024-03-02T06:30:43;6.67;78.72
82506;SHT30;72144;51.444;10.560;2024-03-02T06:33:09;6.65;78.73
82506;SHT30;72144;51.444;10.560;2024-03-02T06:35:34;6.64;78.71
82506;SHT30;72144;51.444;10.560;2024-03-02T06:38:00;6.64;78.68
82506;SHT30;72144;51.444;10.560;2024-03-02T06:40:26;6.64;78.65
82506;SHT30;72144;51.444;10.560;2024-03-02T06:42:51;6.63;78.55
82506;SHT30;72144;51.444;10.560;2024-03-02T06:45:17;6.61;78.62
82506;SHT30;72144;51.444;10.560;2024-03-02T06:47:42;6.61;78.64
82506;SHT30;72144;51.444;10.560;2024-03-02T06:50:08;6.58;78.61
82506;SHT30;72144;51.444;10.560;2024-03-02T06:52:34;6.61;78.63
82506;SHT30;72144;51.444;10.560;2024-03-02T06:55:00;6.60;78.61
82506;SHT30;72144;51.444;10.560;2024-03-02T06:57:25;6.61;78.56
82506;SHT30;72144;51.444;10.560;2024-03-02T06:59:51;6.60;78.61
82506;SHT30;72144;51.444;10.560;2024-03-02T07:02:19;6.58;78.68
82506;SHT30;72144;51.444;10.560;2024-03-02T07:04:45;6.61;78.70
82506;SHT30;72144;51.444;10.560;2024-03-02T07:07:10;6.58;78.65
82506;SHT30;72144;51.444;10.560;2024-03-02T07:09:36;6.58;78.75
82506;SHT30;72144;51.444;10.560;2024-03-02T07:12:01;6.61;78.79
82506;SHT30;72144;51.444;10.560;2024-03-02T07:14:27;6.61;78.86
82506;SHT30;72144;51.444;10.560;2024-03-02T07:17:12;6.63;78.95
82506;SHT30;72144;51.444;10.560;2024-03-02T07:19:38;6.61;78.95
82506;SHT30;72144;51.444;10.560;2024-03-02T07:22:07;6.63;79.02
82506;SHT30;72144;51.444;10.560;2024-03-02T07:24:39;6.65;79.08
82506;SHT30;72144;51.444;10.560;2024-03-02T07:27:04;6.67;79.06
82506;SHT30;72144;51.444;10.560;2024-03-02T07:29:30;6.68;79.10
82506;SHT30;72144;51.444;10.560;2024-03-02T07:31:56;6.71;79.20
82506;SHT30;72144;51.444;10.560;2024-03-02T07:34:21;6.72;79.22
82506;SHT30;72144;51.444;10.560;2024-03-02T07:36:46;6.75;79.25
82506;SHT30;72144;51.444;10.560;2024-03-02T07:39:12;6.75;79.25
82506;SHT30;72144;51.444;10.560;2024-03-02T07:41:37;6.79;79.33
82506;SHT30;72144;51.444;10.560;2024-03-02T07:44:03;6.82;79.33
82506;SHT30;72144;51.444;10.560;2024-03-02T07:46:29;6.85;79.41
82506;SHT30;72144;51.444;10.560;2024-03-02T07:48:54;6.88;79.47
82506;SHT30;72144;51.444;10.560;2024-03-02T07:51:19;6.91;79.54
82506;SHT30;72144;51.444;10.560;2024-03-02T07:53:45;6.92;79.67
82506;SHT30;72144;51.444;10.560;2024-03-02T07:56:10;6.96;79.73
82506;SHT30;72144;51.444;10.560;2024-03-02T07:58:35;7.02;79.73
82506;SHT30;72144;51.444;10.560;2024-03-02T08:01:02;7.06;79.71
82506;SHT30;72144;51.444;10.560;2024-03-02T08:03:27;7.07;79.73
82506;SHT30;72144;51.444;10.560;2024-03-02T08:05:53;7.12;79.75
82506;SHT30;72144;51.444;10.560;2024-03-02T08:08:18;7.15;79.72
82506;SHT30;72144;51.444;10.560;2024-03-02T08:10:44;7.17;79.86
82506;SHT30;72144;51.444;10.560;2024-03-02T08:13:09;7.20;79.89
82506;SHT30;72144;51.444;10.560;2024-03-02T08:15:34;7.24;79.96
82506;SHT30;72144;51.444;10.560;2024-03-02T08:18:00;7.28;79.98
82506;SHT30;72144;51.444;10.560;2024-03-02T08:20:25;7.33;79.96
82506;SHT30;72144;51.444;10.560;2024-03-02T08:22:51;7.38;79.96
82506;SHT30;72144;51.444;10.560;2024-03-02T08:25:17;7.40;79.98
82506;SHT30;72144;51.444;10.560;2024-03-02T08:27:42;7.46;79.96
82506;SHT30;72144;51.444;10.560;2024-03-02T08:30:08;7.47;79.99
82506;SHT30;72144;51.444;10.560;2024-03-02T08:32:35;7.51;79.98
82506;SHT30;72144;51.444;10.560;2024-03-02T08:35:01;7.55;79.99
82506;SHT30;72144;51.444;10.560;2024-03-02T08:37:26;7.58;79.98
82506;SHT30;72144;51.444;10.560;2024-03-02T08:39:52;7.61;80.00
82506;SHT30;72144;51.444;10.560;2024-03-02T08:42:17;7.65;79.94
82506;SHT30;72144;51.444;10.560;2024-03-02T08:44:43;7.69;79.97
82506;SHT30;72144;51.444;10.560;2024-03-02T08:47:08;7.69;80.01
82506;SHT30;72144;51.444;10.560;2024-03-02T08:49:34;7.76;79.96
82506;SHT30;72144;51.444;10.560;2024-03-02T08:52:00;7.76;79.97
82506;SHT30;72144;51.444;10.560;2024-03-02T08:54:25;7.79;80.02
82506;SHT30;72144;51.444;10.560;2024-03-02T08:56:50;7.85;80.01
82506;SHT30;72144;51.444;10.560;2024-03-02T08:59:16;7.87;79.95
82506;SHT30;72144;51.444;10.560;2024-03-02T09:01:42;7.92;79.91
82506;SHT30;72144;51.444;10.560;2024-03-02T09:04:08;7.93;79.87
82506;SHT30;72144;51.444;10.560;2024-03-02T09:06:34;7.97;79.82
82506;SHT30;72144;51.444;10.560;2024-03-02T09:08:59;8.00;79.82
82506;SHT30;72144;51.444;10.560;2024-03-02T09:11:25;8.03;79.81
82506;SHT30;72144;51.444;10.560;2024-03-02T09:13:50;8.09;79.81
82506;SHT30;72144;51.444;10.560;2024-03-02T09:16:16;8.12;79.75
82506;SHT30;72144;51.444;10.560;2024-03-02T09:18:41;8.16;79.71
82506;SHT30;72144;51.444;10.560;2024-03-02T09:21:07;8.20;79.72
82506;SHT30;72144;51.444;10.560;2024-03-02T09:23:33;8.24;79.68
82506;SHT30;72144;51.444;10.560;2024-03-02T09:25:59;8.29;79.67
82506;SHT30;72144;51.444;10.560;2024-03-02T09:28:24;8.34;79.67
82506;SHT30;72144;51.444;10.560;2024-03-02T09:30:50;8.38;79.65
82506;SHT30;72144;51.444;10.560;2024-03-02T09:33:15;8.45;79.66
82506;SHT30;72144;51.444;10.560;2024-03-02T09:35:41;8.49;79.63
82506;SHT30;72144;51.444;10.560;2024-03-02T09:38:06;8.57;79.58
82506;SHT30;72144;51.444;10.560;2024-03-02T09:40:32;8.59;79.53
82506;SHT30;72144;51.444;10.560;2024-03-02T09:42:57;8.68;79.50
82506;SHT30;72144;51.444;10.560;2024-03-02T09:45:24;8.75;79.51
82506;SHT30;72144;51.444;10.560;2024-03-02T09:47:50;8.83;79.49
82506;SHT30;72144;51.444;10.560;2024-03-02T09:50:16;8.90;79.45
82506;SHT30;72144;51.444;10.560;2024-03-02T09:52:48;9.02;79.47
82506;SHT30;72144;51.444;10.560;2024-03-02T09:55:13;9.09;79.40
82506;SHT30;72144;51.444;10.560;2024-03-02T09:57:41;9.20;79.41
82506;SHT30;72144;51.444;10.560;2024-03-02T10:00:08;9.27;79.33
82506;SHT30;72144;51.444;10.560;2024-03-02T10:02:33;9.39;79.31
82506;SHT30;72144;51.444;10.560;2024-03-02T10:04:59;9.47;79.29
82506;SHT30;72144;51.444;10.560;2024-03-02T10:07:24;9.58;79.17
82506;SHT30;72144;51.444;10.560;2024-03-02T10:09:50;9.65;79.15
82506;SHT30;72144;51.444;10.560;2024-03-02T10:12:17;9.76;79.04
82506;SHT30;72144;51.444;10.560;2024-03-02T10:14:43;9.82;78.99
82506;SHT30;72144;51.444;10.560;2024-03-02T10:17:11;9.93;78.91
82506;SHT30;72144;51.444;10.560;2024-03-02T10:19:37;10.00;78.82
82506;SHT30;72144;51.444;10.560;2024-03-02T10:22:04;10.07;78.77
82506;SHT30;72144;51.444;10.560;2024-03-02T10:24:44;10.16;78.80
82506;SHT30;72144;51.444;10.560;2024-03-02T10:27:18;10.25;78.76
82506;SHT30;72144;51.444;10.560;2024-03-02T10:29:48;10.33;78.65
82506;SHT30;72144;51.444;10.560;2024-03-02T10:32:15;10.40;78.57
82506;SHT30;72144;51.444;10.560;2024-03-02T10:34:41;10.48;78.49
82506;SHT30;72144;51.444;10.560;2024-03-02T10:37:08;10.55;78.48
82506;SHT30;72144;51.444;10.560;2024-03-02T10:39:36;10.62;78.42
82506;SHT30;72144;51.444;10.560;2024-03-02T10:42:05;10.69;78.34
82506;SHT30;72144;51.444;10.560;2024-03-02T10:44:31;10.76;78.19
82506;SHT30;72144;51.444;10.560;2024-03-02T10:47:00;10.83;78.13
82506;SHT30;72144;51.444;10.560;2024-03-02T10:49:26;10.89;78.19
82506;SHT30;72144;51.444;10.560;2024-03-02T10:51:52;10.95;78.17
82506;SHT30;72144;51.444;10.560;2024-03-02T10:54:18;11.03;78.12
82506;SHT30;72144;51.444;10.560;2024-03-02T10:56:44;11.11;78.11
82506;SHT30;72144;51.444;10.560;2024-03-02T10:59:33;11.17;77.80
82506;SHT30;72144;51.444;10.560;2024-03-02T11:02:00;11.28;77.81
82506;SHT30;72144;51.444;10.560;2024-03-02T11:04:27;11.32;77.65
82506;SHT30;72144;51.444;10.560;2024-03-02T11:07:06;11.42;77.46
82506;SHT30;72144;51.444;10.560;2024-03-02T11:09:37;11.48;77.33
82506;SHT30;72144;51.444;10.560;2024-03-02T11:12:11;11.57;77.23
82506;SHT30;72144;51.444;10.560;2024-03-02T11:14:40;11.61;77.32
82506;SHT30;72144;51.444;10.560;2024-03-02T11:17:06;11.67;77.43
82506;SHT30;72144;51.444;10.560;2024-03-02T11:19:33;11.73;77.36
82506;SHT30;72144;51.444;10.560;2024-03-02T11:21:59;11.80;77.33
82506;SHT30;72144;51.444;10.560;2024-03-02T11:26:58;11.91;76.95
82506;SHT30;72144;51.444;10.560;2024-03-02T11:29:49;11.98;76.03
82506;SHT30;72144;51.444;10.560;2024-03-02T11:32:22;12.04;76.54
82506;SHT30;72144;51.444;10.560;2024-03-02T11:34:50;12.05;76.61
82506;SHT30;72144;51.444;10.560;2024-03-02T11:37:17;12.10;76.48
82506;SHT30;72144;51.444;10.560;2024-03-02T11:39:48;12.17;76.48
82506;SHT30;72144;51.444;10.560;2024-03-02T11:42:14;12.18;76.51
82506;SHT30;72144;51.444;10.560;2024-03-02T11:44:47;12.21;76.18
82506;SHT30;72144;51.444;10.560;2024-03-02T11:47:15;12.27;76.31
82506;SHT30;72144;51.444;10.560;2024-03-02T11:49:50;12.31;76.07
82506;SHT30;72144;51.444;10.560;2024-03-02T11:52:20;12.32;76.41
82506;SHT30;72144;51.444;10.560;2024-03-02T11:54:46;12.37;76.35
82506;SHT30;72144;51.444;10.560;2024-03-02T11:57:17;12.41;76.27
82506;SHT30;72144;51.444;10.560;2024-03-02T11:59:43;12.46;76.44
82506;SHT30;72144;51.444;10.560;2024-03-02T12:02:29;12.52;75.86
82506;SHT30;72144;51.444;10.560;2024-03-02T12:04:54;12.59;76.63
82506;SHT30;72144;51.444;10.560;2024-03-02T12:07:23;12.65;76.49
82506;SHT30;72144;51.444;10.560;2024-03-02T12:09:49;12.70;76.56
82506;SHT30;72144;51.444;10.560;2024-03-02T12:12:24;12.79;76.62
82506;SHT30;72144;51.444;10.560;2024-03-02T12:14:51;12.86;76.59
82506;SHT30;72144;51.444;10.560;2024-03-02T12:17:17;12.89;76.58
82506;SHT30;72144;51.444;10.560;2024-03-02T12:19:43;12.94;76.62
82506;SHT30;72144;51.444;10.560;2024-03-02T12:22:09;13.00;76.56
82506;SHT30;72144;51.444;10.560;2024-03-02T12:24:34;13.03;76.35
82506;SHT30;72144;51.444;10.560;2024-03-02T12:27:00;13.07;76.25
82506;SHT30;72144;51.444;10.560;2024-03-02T12:29:25;13.10;76.20
82506;SHT30;72144;51.444;10.560;2024-03-02T12:31:52;13.12;76.11
82506;SHT30;72144;51.444;10.560;2024-03-02T12:34:18;13.19;76.24
82506;SHT30;72144;51.444;10.560;2024-03-02T12:36:45;13.28;76.45
82506;SHT30;72144;51.444;10.560;2024-03-02T12:39:13;13.36;76.24
82506;SHT30;72144;51.444;10.560;2024-03-02T12:41:39;13.42;76.08
82506;SHT30;72144;51.444;10.560;2024-03-02T12:44:05;13.46;76.24
82506;SHT30;72144;51.444;10.560;2024-03-02T12:46:31;13.59;76.29
82506;SHT30;72144;51.444;10.560;2024-03-02T12:48:58;13.65;76.01
82506;SHT30;72144;51.444;10.560;2024-03-02T12:51:26;13.74;75.79
82506;SHT30;72144;51.444;10.560;2024-03-02T12:53:55;13.83;75.63
82506;SHT30;72144;51.444;10.560;2024-03-02T12:56:21;13.89;75.55
82506;SHT30;72144;51.444;10.560;2024-03-02T12:58:47;13.96;75.51
82506;SHT30;72144;51.444;10.560;2024-03-02T13:01:14;14.04;75.46
82506;SHT30;72144;51.444;10.560;2024-03-02T13:03:41;14.08;75.43
82506;SHT30;72144;51.444;10.560;2024-03-02T13:06:07;14.17;75.37
82506;SHT30;72144;51.444;10.560;2024-03-02T13:08:35;14.22;75.11
82506;SHT30;72144;51.444;10.560;2024-03-02T13:11:01;14.29;75.25
82506;SHT30;72144;51.444;10.560;2024-03-02T13:13:26;14.33;75.14
82506;SHT30;72144;51.444;10.560;2024-03-02T13:15:55;14.41;75.05
82506;SHT30;72144;51.444;10.560;2024-03-02T13:18:21;14.45;75.09
82506;SHT30;72144;51.444;10.560;2024-03-02T13:20:47;14.50;75.11
82506;SHT30;72144;51.444;10.560;2024-03-02T13:23:12;14.59;75.06
82506;SHT30;72144;51.444;10.560;2024-03-02T13:25:38;14.65;75.15
82506;SHT30;72144;51.444;10.560;2024-03-02T13:28:04;14.70;75.24
82506;SHT30;72144;51.444;10.560;2024-03-02T13:30:30;14.79;75.11
82506;SHT30;72144;51.444;10.560;2024-03-02T13:32:56;14.84;75.07
82506;SHT30;72144;51.444;10.560;2024-03-02T13:35:21;14.93;75.08
82506;SHT30;72144;51.444;10.560;2024-03-02T13:37:47;14.98;74.96
82506;SHT30;72144;51.444;10.560;2024-03-02T13:40:12;15.08;75.03
82506;SHT30;72144;51.444;10.560;2024-03-02T13:42:42;15.17;74.99
82506;SHT30;72144;51.444;10.560;2024-03-02T13:45:08;15.24;75.01
82506;SHT30;72144;51.444;10.560;2024-03-02T13:47:33;15.31;74.97
82506;SHT30;72144;51.444;10.560;2024-03-02T13:49:59;15.38;75.00
82506;SHT30;72144;51.444;10.560;2024-03-02T13:52:24;15.46;75.07
82506;SHT30;72144;51.444;10.560;2024-03-02T13:54:51;15.50;75.14
82506;SHT30;72144;51.444;10.560;2024-03-02T13:57:17;15.60;75.05
82506;SHT30;72144;51.444;10.560;2024-03-02T13:59:45;15.67;75.09
82506;SHT30;72144;51.444;10.560;2024-03-02T14:02:11;15.73;75.21
82506;SHT30;72144;51.444;10.560;2024-03-02T14:04:37;15.80;75.09
82506;SHT30;72144;51.444;10.560;2024-03-02T14:07:04;15.89;74.88
82506;SHT30;72144;51.444;10.560;2024-03-02T14:09:32;15.93;74.74
82506;SHT30;72144;51.444;10.560;2024-03-02T14:11:57;16.00;74.65
82506;SHT30;72144;51.444;10.560;2024-03-02T14:14:25;16.05;74.65
82506;SHT30;72144;51.444;10.560;2024-03-02T14:16:51;16.05;74.49
82506;SHT30;72144;51.444;10.560;2024-03-02T14:19:17;16.11;74.44
82506;SHT30;72144;51.444;10.560;2024-03-02T14:21:43;16.15;74.47
82506;SHT30;72144;51.444;10.560;2024-03-02T14:24:08;16.17;74.37
82506;SHT30;72144;51.444;10.560;2024-03-02T14:26:35;16.21;74.35
82506;SHT30;72144;51.444;10.560;2024-03-02T14:29:01;16.24;74.31
82506;SHT30;72144;51.444;10.560;2024-03-02T14:31:27;16.26;74.44
82506;SHT30;72144;51.444;10.560;2024-03-02T14:33:53;16.28;74.19
82506;SHT30;72144;51.444;10.560;2024-03-02T14:36:19;16.30;74.05
82506;SHT30;72144;51.444;10.560;2024-03-02T14:38:45;16.33;73.98
82506;SHT30;72144;51.444;10.560;2024-03-02T14:41:10;16.33;73.91
82506;SHT30;72144;51.444;10.560;2024-03-02T14:43:36;16.30;73.90
82506;SHT30;72144;51.444;10.560;2024-03-02T14:46:03;16.33;73.93
82506;SHT30;72144;51.444;10.560;2024-03-02T14:48:28;16.33;73.91
82506;SHT30;72144;51.444;10.560;2024-03-02T14:50:54;16.33;73.85
82506;SHT30;72144;51.444;10.560;2024-03-02T14:53:19;16.35;73.85
82506;SHT30;72144;51.444;10.560;2024-03-02T14:55:45;16.33;73.80
82506;SHT30;72144;51.444;10.560;2024-03-02T14:58:11;16.30;73.78
82506;SHT30;72144;51.444;10.560;2024-03-02T15:00:36;16.30;73.76
82506;SHT30;72144;51.444;10.560;2024-03-02T15:03:02;16.30;73.72
82506;SHT30;72144;51.444;10.560;2024-03-02T15:05:29;16.33;73.65
82506;SHT30;72144;51.444;10.560;2024-03-02T15:07:54;16.29;73.67
82506;SHT30;72144;51.444;10.560;2024-03-02T15:10:19;16.32;73.52
82506;SHT30;72144;51.444;10.560;2024-03-02T15:12:45;16.28;73.52
82506;SHT30;72144;51.444;10.560;2024-03-02T15:15:11;16.26;73.56
82506;SHT30;72144;51.444;10.560;2024-03-02T15:17:37;16.25;73.57
82506;SHT30;72144;51.444;10.560;2024-03-02T15:20:02;16.25;73.31
82506;SHT30;72144;51.444;10.560;2024-03-02T15:22:29;16.21;73.50
82506;SHT30;72144;51.444;10.560;2024-03-02T15:24:55;16.18;73.60